createdAt,value
2019-04-21T00:00:16.698Z,66.53
2019-04-21T00:01:12.668Z,65.87
2019-04-21T00:02:18.773Z,66.72
2019-04-21T00:03:19.366Z,67.01
2019-04-21T00:04:24.859Z,66.72
2019-04-21T00:05:49.862Z,67.11
2019-04-21T00:06:31.585Z,66.25
2019-04-21T00:07:31.648Z,66.63
2019-04-21T00:09:34.667Z,66.82
2019-04-21T00:10:36.441Z,66.92
2019-04-21T00:11:37.805Z,67.01
2019-04-21T00:12:31.056Z,66.72
2019-04-21T00:13:27.704Z,66.72
2019-04-21T00:14:24.929Z,66.92
2019-04-21T00:15:20.554Z,67.58
2019-04-21T00:16:14.111Z,68.06
2019-04-21T00:17:15.635Z,67.58
2019-04-21T00:18:12.277Z,68.16
2019-04-21T00:19:17.299Z,68.54
2019-04-21T00:20:20.369Z,68.92
2019-04-21T00:21:22.271Z,69.56
2019-04-21T00:22:24.713Z,69.46
2019-04-21T00:23:29.634Z,70.22
2019-04-21T00:24:28.877Z,70.32
2019-04-21T00:25:26.470Z,70.61
2019-04-21T00:26:27.872Z,70.13
2019-04-21T00:27:28.543Z,71.08
2019-04-21T00:28:39.583Z,71.81
2019-04-21T00:29:35.406Z,72.09
2019-04-21T00:30:34.109Z,71.91
2019-04-21T00:31:32.251Z,71.91
2019-04-21T00:32:25.770Z,71.72
2019-04-21T00:33:17.566Z,72.48
2019-04-21T00:34:11.155Z,72.96
2019-04-21T00:35:16.910Z,73.52
2019-04-21T00:36:16.912Z,74.10
2019-04-21T00:37:20.677Z,74.67
2019-04-21T00:38:32.463Z,74.38
2019-04-21T00:39:36.425Z,75.15
2019-04-21T00:40:39.815Z,75.34
2019-04-21T00:41:33.833Z,75.91
2019-04-21T00:42:30.373Z,74.96
2019-04-21T00:43:28.427Z,75.15
2019-04-21T00:44:21.486Z,74.48
2019-04-21T00:45:24.942Z,74.29
2019-04-21T00:46:28.007Z,74.29
2019-04-21T00:47:30.654Z,74.29
2019-04-21T00:48:29.965Z,74.48
2019-04-21T00:49:23.262Z,75.15
2019-04-21T00:50:31.418Z,75.24
2019-04-21T00:51:39.743Z,74.96
2019-04-21T00:52:46.176Z,75.24
2019-04-21T00:53:37.107Z,75.15
2019-04-21T00:54:33.109Z,74.96
2019-04-21T00:56:35.345Z,75.24
2019-04-21T00:57:38.863Z,75.24
2019-04-21T00:58:33.261Z,75.62
2019-04-21T00:59:34.990Z,74.86
2019-04-21T01:00:34.997Z,75.05
2019-04-21T01:01:34.223Z,74.96
2019-04-21T01:02:29.721Z,75.05
2019-04-21T01:03:32.350Z,74.57
2019-04-21T01:04:30.485Z,74.57
2019-04-21T01:05:38.547Z,74.77
2019-04-21T01:06:34.088Z,75.05
2019-04-21T01:07:32.007Z,74.86
2019-04-21T01:08:32.213Z,74.67
2019-04-21T01:09:29.069Z,74.96
2019-04-21T01:10:20.965Z,74.57
2019-04-21T01:11:40.233Z,74.57
2019-04-21T01:12:33.113Z,74.29
2019-04-21T01:13:34.496Z,74.77
2019-04-21T01:14:35.846Z,74.38
2019-04-21T01:15:37.337Z,74.19
2019-04-21T01:16:34.485Z,74.77
2019-04-21T01:17:30.843Z,75.24
2019-04-21T01:18:32.494Z,75.53
2019-04-21T01:19:25.145Z,75.62
2019-04-21T01:20:16.831Z,75.96
2019-04-21T01:21:14.324Z,76.82
2019-04-21T01:22:08.658Z,76.73
2019-04-21T01:23:08.622Z,77.87
2019-04-21T01:24:15.917Z,77.11
2019-04-21T01:25:19.281Z,77.11
2019-04-21T01:26:26.319Z,76.06
2019-04-21T01:27:21.410Z,76.44
2019-04-21T01:28:27.475Z,75.87
2019-04-21T01:29:29.001Z,75.87
2019-04-21T01:30:29.679Z,76.25
2019-04-21T01:31:22.937Z,76.44
2019-04-21T01:32:29.272Z,76.82
2019-04-21T01:33:36.119Z,77.01
2019-04-21T01:34:29.112Z,76.73
2019-04-21T01:35:25.421Z,77.11
2019-04-21T01:36:24.176Z,76.25
2019-04-21T01:37:32.951Z,77.40
2019-04-21T01:38:34.337Z,75.87
2019-04-21T01:39:34.493Z,75.87
2019-04-21T01:40:38.112Z,76.54
2019-04-21T01:41:35.542Z,77.40
2019-04-21T01:42:25.595Z,78.16
2019-04-21T01:43:27.572Z,78.31
2019-04-21T01:44:36.098Z,78.12
2019-04-21T01:45:26.484Z,78.88
2019-04-21T01:46:28.398Z,78.50
2019-04-21T01:47:24.848Z,79.07
2019-04-21T01:48:24.680Z,79.55
2019-04-21T01:49:21.987Z,80.02
2019-04-21T01:50:27.446Z,80.31
2019-04-21T01:51:20.937Z,81.32
2019-04-21T01:53:30.654Z,83.13
2019-04-21T01:54:31.713Z,83.51
2019-04-21T01:55:30.815Z,84.36
2019-04-21T01:56:25.329Z,84.42
2019-04-21T01:57:22.618Z,84.80
2019-04-21T01:58:19.408Z,85.56
2019-04-21T01:59:20.467Z,86.70
2019-04-21T02:00:18.988Z,87.42
2019-04-21T02:01:28.463Z,87.71
2019-04-21T02:02:29.292Z,88.46
2019-04-21T02:04:37.206Z,88.28
2019-04-21T02:05:32.931Z,88.60
2019-04-21T02:06:27.582Z,88.70
2019-04-21T02:07:27.392Z,88.28
2019-04-21T02:08:28.790Z,88.60
2019-04-21T02:09:27.388Z,88.23
2019-04-21T02:10:34.237Z,87.65
2019-04-21T02:11:31.256Z,87.65
2019-04-21T02:12:30.213Z,87.56
2019-04-21T02:13:23.209Z,86.99
2019-04-21T02:14:31.136Z,86.90
2019-04-21T02:15:31.227Z,86.51
2019-04-21T02:16:28.264Z,85.47
2019-04-21T02:17:40.776Z,85.37
2019-04-21T02:18:31.614Z,85.85
2019-04-21T02:19:23.598Z,86.80
2019-04-21T02:20:18.045Z,87.18
2019-04-21T02:21:21.714Z,87.46
2019-04-21T02:22:35.286Z,88.99
2019-04-21T02:23:34.388Z,88.79
2019-04-21T02:24:39.971Z,88.79
2019-04-21T02:25:25.803Z,88.23
2019-04-21T02:26:32.415Z,88.75
2019-04-21T02:27:31.735Z,89.42
2019-04-21T02:28:36.884Z,89.51
2019-04-21T02:29:37.654Z,89.70
2019-04-21T02:30:45.486Z,89.32
2019-04-21T02:31:40.466Z,89.14
2019-04-21T02:33:48.977Z,90.18
2019-04-21T02:34:40.931Z,90.84
2019-04-21T02:38:47.739Z,92.99
2019-04-21T02:39:41.128Z,92.80
2019-04-21T02:40:38.537Z,92.80
2019-04-21T02:41:43.731Z,93.60
2019-04-21T02:42:38.931Z,93.04
2019-04-21T02:43:38.854Z,92.84
2019-04-21T02:44:42.880Z,92.27
2019-04-21T02:48:39.275Z,93.37
2019-04-21T02:49:45.231Z,93.60
2019-04-21T02:54:48.058Z,94.03
2019-04-21T02:55:38.757Z,94.42
2019-04-21T02:56:48.215Z,94.42
2019-04-21T02:58:48.017Z,94.79
2019-04-21T02:59:42.259Z,94.03
2019-04-21T03:00:36.525Z,93.84
2019-04-21T03:01:41.343Z,94.60
2019-04-21T03:02:40.878Z,94.79
2019-04-21T03:03:36.487Z,94.79
2019-04-21T03:04:46.675Z,94.79
2019-04-21T03:06:59.833Z,95.41
2019-04-21T03:07:34.795Z,96.26
2019-04-21T03:08:47.477Z,96.26
2019-04-21T03:09:46.161Z,96.45
2019-04-21T03:11:28.569Z,96.36
2019-04-21T03:12:28.888Z,95.89
2019-04-21T03:13:44.607Z,95.32
2019-04-21T03:16:31.564Z,96.45
2019-04-21T03:18:46.045Z,96.84
2019-04-21T03:19:45.173Z,97.03
2019-04-21T03:20:56.833Z,97.88
2019-04-21T03:22:32.713Z,99.40
2019-04-21T03:23:52.297Z,99.99
2019-04-21T03:25:04.488Z,99.99
2019-04-21T03:25:41.745Z,99.99
2019-04-21T03:26:36.342Z,99.99
2019-04-21T03:28:37.843Z,98.64
2019-04-21T03:35:18.447Z,97.31
2019-04-21T03:36:31.554Z,98.36
2019-04-21T03:36:49.835Z,99.21
2019-04-21T03:38:37.628Z,99.21
2019-04-21T03:39:37.512Z,98.17
2019-04-21T03:41:41.806Z,99.99
2019-04-21T03:44:37.274Z,99.99
2019-04-21T03:47:50.192Z,99.73
2019-04-21T03:52:39.345Z,99.73
2019-04-21T03:53:31.493Z,99.99
2019-04-21T03:54:37.174Z,99.99
2019-04-21T03:56:53.522Z,99.99
2019-04-21T03:57:46.617Z,99.99
2019-04-21T03:58:46.886Z,99.99
2019-04-21T03:59:24.633Z,99.99
2019-04-21T04:01:36.663Z,99.99
2019-04-21T04:02:45.129Z,99.99
2019-04-21T04:05:49.503Z,99.99
2019-04-21T04:06:38.397Z,99.99
2019-04-21T04:07:44.014Z,99.99
2019-04-21T04:09:37.566Z,99.99
2019-04-21T04:10:34.797Z,99.99
2019-04-21T04:11:39.816Z,99.99
2019-04-21T04:12:35.085Z,99.99
2019-04-21T04:14:42.464Z,99.99
2019-04-21T04:15:38.233Z,99.99
2019-04-21T04:19:39.974Z,99.99
2019-04-21T04:24:50.195Z,99.99
2019-04-21T04:26:42.934Z,99.99
2019-04-21T04:27:47.276Z,99.99
2019-04-21T04:30:40.968Z,99.99
2019-04-21T04:32:42.480Z,99.99
2019-04-21T04:35:48.918Z,99.99
2019-04-21T04:40:30.746Z,99.99
2019-04-21T04:41:41.655Z,99.99
2019-04-21T04:45:40.626Z,99.99
2019-04-21T04:46:33.360Z,99.99
2019-04-21T04:48:28.421Z,99.99
2019-04-21T04:50:43.379Z,99.99
2019-04-21T04:51:43.836Z,99.99
2019-04-21T04:53:40.910Z,99.99
2019-04-21T04:54:47.514Z,99.99
2019-04-21T04:55:33.685Z,99.99
2019-04-21T04:56:31.023Z,99.99
2019-04-21T04:57:53.236Z,99.99
2019-04-21T04:58:54.605Z,99.99
2019-04-21T05:00:34.914Z,99.99
2019-04-21T05:01:57.628Z,99.99
2019-04-21T05:02:35.557Z,99.99
2019-04-21T05:03:45.190Z,99.99
2019-04-21T05:04:37.550Z,99.99
2019-04-21T05:05:48.817Z,99.99
2019-04-21T05:07:34.073Z,99.99
2019-04-21T05:08:42.276Z,99.99
2019-04-21T05:09:33.604Z,99.99
2019-04-21T05:10:38.491Z,99.99
2019-04-21T05:13:37.538Z,99.99
2019-04-21T05:14:33.761Z,99.99
2019-04-21T05:15:42.502Z,99.99
2019-04-21T05:16:41.012Z,99.99
2019-04-21T05:18:36.746Z,99.99
2019-04-21T05:19:30.543Z,99.99
2019-04-21T05:23:28.778Z,99.31
2019-04-21T05:24:20.908Z,99.79
2019-04-21T05:25:19.548Z,99.99
2019-04-21T05:26:14.962Z,99.79
2019-04-21T05:27:16.427Z,99.99
2019-04-21T05:28:12.526Z,99.99
2019-04-21T05:29:08.992Z,99.98
2019-04-21T05:30:30.670Z,99.99
2019-04-21T05:31:25.103Z,99.99
2019-04-21T05:32:17.206Z,99.88
2019-04-21T05:33:24.459Z,99.99
2019-04-21T05:34:25.171Z,99.88
2019-04-21T05:35:20.117Z,99.41
2019-04-21T05:36:18.754Z,98.74
2019-04-21T05:37:22.009Z,98.32
2019-04-21T05:38:17.462Z,98.13
2019-04-21T05:39:14.662Z,97.36
2019-04-21T05:40:15.741Z,97.74
2019-04-21T05:41:11.060Z,98.22
2019-04-21T05:42:08.852Z,97.36
2019-04-21T05:43:21.388Z,97.93
2019-04-21T05:44:27.999Z,97.79
2019-04-21T05:45:25.436Z,97.03
2019-04-21T05:46:18.446Z,96.46
2019-04-21T05:47:29.916Z,96.55
2019-04-21T05:48:22.855Z,96.17
2019-04-21T05:49:14.090Z,95.51
2019-04-21T05:50:20.501Z,95.41
2019-04-21T05:51:16.140Z,94.56
2019-04-21T05:52:14.583Z,94.32
2019-04-21T05:53:25.304Z,93.17
2019-04-21T05:54:29.652Z,93.37
2019-04-21T05:55:24.464Z,93.46
2019-04-21T05:56:22.964Z,93.08
2019-04-21T05:57:18.856Z,92.69
2019-04-21T05:58:19.375Z,92.41
2019-04-21T05:59:20.087Z,91.65
2019-04-21T06:00:32.125Z,91.41
2019-04-21T06:01:31.481Z,91.41
2019-04-21T06:03:23.522Z,90.36
2019-04-21T06:04:38.818Z,90.36
2019-04-21T06:06:26.160Z,90.93
2019-04-21T06:08:17.896Z,90.45
2019-04-21T06:09:21.247Z,90.08
2019-04-21T06:10:22.226Z,90.69
2019-04-21T06:12:23.808Z,90.03
2019-04-21T06:13:27.922Z,90.31
2019-04-21T06:14:25.157Z,89.26
2019-04-21T06:15:26.565Z,89.07
2019-04-21T06:16:25.421Z,88.12
2019-04-21T06:17:25.334Z,88.54
2019-04-21T06:18:30.187Z,87.97
2019-04-21T06:19:22.331Z,87.11
2019-04-21T06:20:21.285Z,86.20
2019-04-21T06:21:16.583Z,84.77
2019-04-21T06:22:20.938Z,83.81
2019-04-21T06:23:25.119Z,84.00
2019-04-21T06:24:26.992Z,82.29
2019-04-21T06:25:44.689Z,81.14
2019-04-21T06:27:28.013Z,80.22
2019-04-21T06:28:22.389Z,80.90
2019-04-21T06:29:24.070Z,79.85
2019-04-21T06:30:20.718Z,81.66
2019-04-21T06:31:33.739Z,81.95
2019-04-21T06:32:30.481Z,80.51
2019-04-21T06:33:20.256Z,81.22
2019-04-21T06:34:23.476Z,80.46
2019-04-21T06:38:28.594Z,79.12
2019-04-21T06:39:25.583Z,78.45
2019-04-21T06:40:30.812Z,78.64
2019-04-21T06:41:28.898Z,78.36
2019-04-21T06:42:21.184Z,79.50
2019-04-21T06:44:14.934Z,77.53
2019-04-21T06:45:20.491Z,78.11
2019-04-21T06:46:25.924Z,77.72
2019-04-21T06:47:29.998Z,77.06
2019-04-21T06:48:24.648Z,76.29
2019-04-21T06:49:17.395Z,76.00
2019-04-21T06:50:24.386Z,76.23
2019-04-21T06:51:22.537Z,74.90
2019-04-21T06:52:43.500Z,75.09
2019-04-21T06:53:20.481Z,73.65
2019-04-21T06:54:22.001Z,72.60
2019-04-21T06:55:19.899Z,73.27
2019-04-21T06:56:28.540Z,73.08
2019-04-21T06:57:21.801Z,74.84
2019-04-21T06:58:18.395Z,73.69
2019-04-21T06:59:14.536Z,72.16
2019-04-21T07:00:18.489Z,71.97
2019-04-21T07:01:26.519Z,71.11
2019-04-21T07:03:19.393Z,68.55
2019-04-21T07:05:21.774Z,68.46
2019-04-21T07:06:24.597Z,69.23
2019-04-21T07:07:17.223Z,68.55
2019-04-21T07:08:38.892Z,66.86
2019-04-21T07:09:30.095Z,66.48
2019-04-21T07:10:22.528Z,67.34
2019-04-21T07:11:14.995Z,65.62
2019-04-21T07:12:18.649Z,65.62
2019-04-21T07:13:15.389Z,66.19
2019-04-21T07:15:21.811Z,65.46
2019-04-21T07:16:19.216Z,64.12
2019-04-21T07:17:24.240Z,63.92
2019-04-21T07:18:19.192Z,64.59
2019-04-21T07:19:35.092Z,64.31
2019-04-21T07:20:18.546Z,63.19
2019-04-21T07:21:25.513Z,62.23
2019-04-21T07:22:21.452Z,62.04
2019-04-21T07:23:20.423Z,61.56
2019-04-21T07:24:21.722Z,61.66
2019-04-21T07:25:22.567Z,61.59
2019-04-21T07:26:22.258Z,61.02
2019-04-21T07:27:16.288Z,61.88
2019-04-21T07:28:17.366Z,59.77
2019-04-21T07:29:21.989Z,58.71
2019-04-21T07:30:20.861Z,58.81
2019-04-21T07:31:20.560Z,58.81
2019-04-21T07:32:19.141Z,59.12
2019-04-21T07:33:43.735Z,57.78
2019-04-21T07:34:22.666Z,58.26
2019-04-21T07:35:31.802Z,57.88
2019-04-21T07:36:28.976Z,58.36
2019-04-21T07:37:12.516Z,58.67
2019-04-21T07:38:19.557Z,57.14
2019-04-21T07:39:12.034Z,57.90
2019-04-21T07:40:16.095Z,57.90
2019-04-21T07:41:11.319Z,56.56
2019-04-21T07:42:13.471Z,57.62
2019-04-21T07:43:12.104Z,57.23
2019-04-21T07:44:10.313Z,56.68
2019-04-21T07:45:12.990Z,56.01
2019-04-21T07:46:10.169Z,55.34
2019-04-21T07:47:15.792Z,55.44
2019-04-21T07:48:14.420Z,55.82
2019-04-21T07:49:12.449Z,54.77
2019-04-21T07:50:14.886Z,55.66
2019-04-21T07:51:20.955Z,55.08
2019-04-21T07:52:18.192Z,57.39
2019-04-21T07:53:25.892Z,55.66
2019-04-21T07:54:25.113Z,55.11
2019-04-21T07:56:00.781Z,54.82
2019-04-21T07:57:15.536Z,54.46
2019-04-21T07:58:14.980Z,53.69
2019-04-21T07:59:23.907Z,51.98
2019-04-21T08:01:22.694Z,51.12
2019-04-21T08:02:18.616Z,52.08
2019-04-21T08:03:14.130Z,51.34
2019-04-21T08:04:24.457Z,51.14
2019-04-21T08:06:20.485Z,51.53
2019-04-21T08:07:21.623Z,51.53
2019-04-21T08:08:12.464Z,51.72
2019-04-21T08:09:11.908Z,49.91
2019-04-21T08:10:12.017Z,49.05
2019-04-21T08:11:09.609Z,50.71
2019-04-21T08:12:09.833Z,50.52
2019-04-21T08:13:27.353Z,49.75
2019-04-21T08:14:17.723Z,48.79
2019-04-21T08:15:23.151Z,48.03
2019-04-21T08:16:20.387Z,47.36
2019-04-21T08:17:16.404Z,47.75
2019-04-21T08:18:11.777Z,46.30
2019-04-21T08:19:15.662Z,45.45
2019-04-21T08:20:13.794Z,46.51
2019-04-21T08:21:12.219Z,46.33
2019-04-21T08:22:15.709Z,47.22
2019-04-21T08:24:14.951Z,45.07
2019-04-21T08:25:14.908Z,45.55
2019-04-21T08:26:34.514Z,46.61
2019-04-21T08:27:17.741Z,46.25
2019-04-21T08:28:08.973Z,46.17
2019-04-21T08:29:20.302Z,45.50
2019-04-21T08:30:11.816Z,43.98
2019-04-21T08:31:13.977Z,43.49
2019-04-21T08:32:21.414Z,44.05
2019-04-21T08:34:13.978Z,44.07
2019-04-21T08:35:34.582Z,43.40
2019-04-21T08:37:15.046Z,42.93
2019-04-21T08:38:13.817Z,43.03
2019-04-21T08:39:14.992Z,42.93
2019-04-21T08:40:17.731Z,43.54
2019-04-21T08:41:17.142Z,43.34
2019-04-21T08:42:10.390Z,42.00
2019-04-21T08:43:21.199Z,40.94
2019-04-21T08:44:10.698Z,40.07
2019-04-21T08:45:14.935Z,38.91
2019-04-21T08:47:15.506Z,39.70
2019-04-21T08:48:16.977Z,39.69
2019-04-21T08:49:16.743Z,40.00
2019-04-21T08:50:14.915Z,39.34
2019-04-21T08:52:21.556Z,39.26
2019-04-21T08:53:14.646Z,38.17
2019-04-21T08:54:15.175Z,37.30
2019-04-21T08:55:22.521Z,39.65
2019-04-21T08:56:16.469Z,37.51
2019-04-21T08:57:15.246Z,38.09
2019-04-21T08:59:19.015Z,37.41
2019-04-21T09:01:20.514Z,35.88
2019-04-21T09:02:16.784Z,36.08
2019-04-21T09:03:14.016Z,36.08
2019-04-21T09:04:13.403Z,35.82
2019-04-21T09:05:12.606Z,35.92
2019-04-21T09:06:17.343Z,34.75
2019-04-21T09:07:12.903Z,35.25
2019-04-21T09:08:15.299Z,34.77
2019-04-21T09:10:09.426Z,35.37
2019-04-21T09:11:11.461Z,34.01
2019-04-21T09:12:10.907Z,33.15
2019-04-21T09:13:14.909Z,33.06
2019-04-21T09:14:13.110Z,33.17
2019-04-21T09:15:13.850Z,32.60
2019-04-21T09:16:09.879Z,31.04
2019-04-21T09:17:06.581Z,31.04
2019-04-21T09:18:10.145Z,29.49
2019-04-21T09:19:11.751Z,30.07
2019-04-21T09:20:22.622Z,29.88
2019-04-21T09:21:15.988Z,30.96
2019-04-21T09:22:14.198Z,30.94
2019-04-21T09:23:13.361Z,29.97
2019-04-21T09:24:14.806Z,31.24
2019-04-21T09:25:16.287Z,30.85
2019-04-21T09:26:14.421Z,29.99
2019-04-21T09:27:09.715Z,31.17
2019-04-21T09:28:11.168Z,31.16
2019-04-21T09:29:04.391Z,30.02
2019-04-21T09:29:57.706Z,29.52
2019-04-21T09:30:57.767Z,30.11
2019-04-21T09:31:55.850Z,28.45
2019-04-21T09:32:56.140Z,28.65
2019-04-21T09:33:56.954Z,29.33
2019-04-21T09:34:52.822Z,29.15
2019-04-21T09:35:58.873Z,28.18
2019-04-21T09:37:09.924Z,29.28
2019-04-21T09:38:00.576Z,29.39
2019-04-21T09:39:00.034Z,28.20
2019-04-21T09:39:56.980Z,27.26
2019-04-21T09:40:54.435Z,25.00
2019-04-21T09:41:54.529Z,22.17
2019-04-21T09:42:59.491Z,24.42
2019-04-21T09:43:55.700Z,23.05
2019-04-21T09:44:58.015Z,23.44
2019-04-21T09:45:52.523Z,23.64
2019-04-21T09:46:56.632Z,23.74
2019-04-21T09:48:01.106Z,23.14
2019-04-21T09:48:59.017Z,24.54
2019-04-21T09:49:52.435Z,24.54
2019-04-21T09:50:52.528Z,23.48
2019-04-21T09:51:52.963Z,23.18
2019-04-21T09:52:58.268Z,25.35
2019-04-21T09:54:01.182Z,24.77
2019-04-21T09:55:03.941Z,25.27
2019-04-21T09:55:59.346Z,24.79
2019-04-21T09:56:58.561Z,23.80
2019-04-21T09:57:57.021Z,22.71
2019-04-21T09:59:03.809Z,20.26
2019-04-21T10:00:00.910Z,18.79
2019-04-21T10:01:03.262Z,19.20
2019-04-21T10:02:04.827Z,19.20
2019-04-21T10:03:00.920Z,18.60
2019-04-21T10:03:56.427Z,18.90
2019-04-21T10:04:52.744Z,20.88
2019-04-21T10:05:52.119Z,21.17
2019-04-21T10:06:52.067Z,21.39
2019-04-21T10:07:53.163Z,19.83
2019-04-21T10:08:58.552Z,20.12
2019-04-21T10:09:52.355Z,19.92
2019-04-21T10:10:51.987Z,20.53
2019-04-21T10:11:52.716Z,19.26
2019-04-21T10:12:52.032Z,18.77
2019-04-21T10:13:52.978Z,17.88
2019-04-21T10:14:51.899Z,18.77
2019-04-21T10:15:52.029Z,16.03
2019-04-21T10:16:51.849Z,15.75
2019-04-21T10:17:52.055Z,15.16
2019-04-21T10:18:52.409Z,14.97
2019-04-21T10:19:52.889Z,15.25
2019-04-21T10:20:51.780Z,16.63
2019-04-21T10:21:52.081Z,14.46
2019-04-21T10:22:53.008Z,15.85
2019-04-21T10:23:52.229Z,16.36
2019-04-21T10:24:52.185Z,14.61
2019-04-21T10:25:52.560Z,14.98
2019-04-21T10:26:51.636Z,14.98
2019-04-21T10:27:52.768Z,14.78
2019-04-21T10:28:52.941Z,14.18
2019-04-21T10:29:52.267Z,14.97
2019-04-21T10:30:52.830Z,15.76
2019-04-21T10:31:52.434Z,15.06
2019-04-21T10:32:52.435Z,15.64
2019-04-21T10:33:52.586Z,14.37
2019-04-21T10:34:52.755Z,15.75
2019-04-21T10:35:51.448Z,15.84
2019-04-21T10:36:51.426Z,14.44
2019-04-21T10:38:03.471Z,14.47
2019-04-21T10:38:53.564Z,14.34
2019-04-21T10:39:51.599Z,14.34
2019-04-21T10:40:51.724Z,14.53
2019-04-21T10:41:51.322Z,14.93
2019-04-21T10:42:52.286Z,14.75
2019-04-21T10:43:51.411Z,14.06
2019-04-21T10:44:52.625Z,13.39
2019-04-21T10:45:51.238Z,13.89
2019-04-21T10:46:52.574Z,13.21
2019-04-21T10:47:52.684Z,15.17
2019-04-21T10:48:51.173Z,14.00
2019-04-21T10:49:51.172Z,12.73
2019-04-21T10:50:51.135Z,12.93
2019-04-21T10:51:51.112Z,12.43
2019-04-21T10:52:51.110Z,11.73
2019-04-21T10:53:53.891Z,10.96
2019-04-21T10:55:11.273Z,11.45
2019-04-21T10:56:04.154Z,11.35
2019-04-21T10:56:52.472Z,11.45
2019-04-21T10:57:50.988Z,11.07
2019-04-21T10:58:52.102Z,10.87
2019-04-21T10:59:53.851Z,11.97
2019-04-21T11:00:51.595Z,11.98
2019-04-21T11:01:50.933Z,11.57
2019-04-21T11:02:50.886Z,11.86
2019-04-21T11:03:50.885Z,11.58
2019-04-21T11:04:51.094Z,10.48
2019-04-21T11:05:50.827Z,11.66
2019-04-21T11:06:50.828Z,12.48
2019-04-21T11:08:01.394Z,10.78
2019-04-21T11:08:54.188Z,12.37
2019-04-21T11:09:51.875Z,11.10
2019-04-21T11:10:51.876Z,10.22
2019-04-21T11:11:52.078Z,10.61
2019-04-21T11:12:50.888Z,11.50
2019-04-21T11:13:50.756Z,12.07
2019-04-21T11:14:51.461Z,11.38
2019-04-21T11:15:50.879Z,11.58
2019-04-21T11:16:52.617Z,10.36
2019-04-21T11:17:50.678Z,9.59
2019-04-21T11:18:51.634Z,10.10
2019-04-21T11:19:50.696Z,10.78
2019-04-21T11:20:51.168Z,9.70
2019-04-21T11:21:50.518Z,8.72
2019-04-21T11:22:51.394Z,9.42
2019-04-21T11:23:50.471Z,8.62
2019-04-21T11:24:51.117Z,8.23
2019-04-21T11:25:51.632Z,10.22
2019-04-21T11:26:51.870Z,12.19
2019-04-21T11:27:51.176Z,10.91
2019-04-21T11:28:50.597Z,10.60
2019-04-21T11:29:51.596Z,10.39
2019-04-21T11:30:50.994Z,9.29
2019-04-21T11:31:51.340Z,10.49
2019-04-21T11:32:51.109Z,10.30
2019-04-21T11:33:51.220Z,10.21
2019-04-21T11:34:51.407Z,9.42
2019-04-21T11:35:51.233Z,9.42
2019-04-21T11:36:50.279Z,9.81
2019-04-21T11:37:50.333Z,8.83
2019-04-21T11:39:06.097Z,8.34
2019-04-21T11:39:57.310Z,8.64
2019-04-21T11:40:50.143Z,8.73
2019-04-21T11:41:50.114Z,9.19
2019-04-21T11:42:51.448Z,9.49
2019-04-21T11:43:50.836Z,9.99
2019-04-21T11:44:51.507Z,10.89
2019-04-21T11:45:50.539Z,9.60
2019-04-21T11:46:50.136Z,9.81
2019-04-21T11:47:50.214Z,9.42
2019-04-21T11:48:50.443Z,10.82
2019-04-21T11:49:49.970Z,10.82
2019-04-21T11:50:50.952Z,9.42
2019-04-21T11:51:51.058Z,9.19
2019-04-21T11:52:49.909Z,9.69
2019-04-21T11:53:50.748Z,10.47
2019-04-21T11:54:50.934Z,10.17
2019-04-21T11:55:51.818Z,9.09
2019-04-21T11:56:50.664Z,10.39
2019-04-21T11:57:51.351Z,10.79
2019-04-21T11:58:50.001Z,10.39
2019-04-21T11:59:49.778Z,9.50
2019-04-21T12:00:50.801Z,10.00
2019-04-21T12:01:49.857Z,9.31
2019-04-21T12:02:49.739Z,10.31
2019-04-21T12:03:49.729Z,9.53
2019-04-21T12:04:49.677Z,9.92
2019-04-21T12:05:51.097Z,9.14
2019-04-21T12:06:51.155Z,9.43
2019-04-21T12:07:49.626Z,9.75
2019-04-21T12:08:52.607Z,9.55
2019-04-21T12:09:49.592Z,9.16
2019-04-21T12:10:49.598Z,8.66
2019-04-21T12:11:49.570Z,8.56
2019-04-21T12:12:50.881Z,8.55
2019-04-21T12:13:49.929Z,7.85
2019-04-21T12:14:50.272Z,8.65
2019-04-21T12:15:49.471Z,9.14
2019-04-21T12:16:50.804Z,9.75
2019-04-21T12:17:50.125Z,11.14
2019-04-21T12:18:49.415Z,10.35
2019-04-21T12:19:50.678Z,9.75
2019-04-21T12:20:49.378Z,10.74
2019-04-21T12:22:04.186Z,9.95
2019-04-21T12:22:49.469Z,9.26
2019-04-21T12:23:50.291Z,9.25
2019-04-21T12:24:49.295Z,9.24
2019-04-21T12:25:49.491Z,9.63
2019-04-21T12:26:49.743Z,9.34
2019-04-21T12:27:49.948Z,9.65
2019-04-21T12:28:50.119Z,8.36
2019-04-21T12:29:49.374Z,9.25
2019-04-21T12:30:49.662Z,9.05
2019-04-21T12:31:49.685Z,8.45
2019-04-21T12:32:49.173Z,7.76
2019-04-21T12:33:49.803Z,7.96
2019-04-21T12:34:51.720Z,7.96
2019-04-21T12:35:49.097Z,6.66
2019-04-21T12:36:49.076Z,8.15
2019-04-21T12:37:49.068Z,8.86
2019-04-21T12:38:55.802Z,9.95
2019-04-21T12:39:50.463Z,7.65
2019-04-21T12:40:48.994Z,9.24
2019-04-21T12:41:49.044Z,9.42
2019-04-21T12:42:48.962Z,9.32
2019-04-21T12:43:48.944Z,8.93
2019-04-21T12:44:49.498Z,9.21
2019-04-21T12:45:49.486Z,9.91
2019-04-21T12:46:49.795Z,10.21
2019-04-21T12:47:50.670Z,10.50
2019-04-21T12:48:49.684Z,9.41
2019-04-21T12:49:49.837Z,9.11
2019-04-21T12:50:49.929Z,9.71
2019-04-21T12:51:48.787Z,9.03
2019-04-21T12:52:49.622Z,9.43
2019-04-21T12:53:49.861Z,7.75
2019-04-21T12:54:48.728Z,8.24
2019-04-21T12:55:49.916Z,7.75
2019-04-21T12:56:49.572Z,9.42
2019-04-21T12:57:49.551Z,8.23
2019-04-21T12:58:49.063Z,8.52
2019-04-21T12:59:48.776Z,10.42
2019-04-21T13:00:49.599Z,9.72
2019-04-21T13:01:48.682Z,9.42
2019-04-21T13:02:49.751Z,9.79
2019-04-21T13:03:49.938Z,10.28
2019-04-21T13:04:49.743Z,10.57
2019-04-21T13:05:49.567Z,10.69
2019-04-21T13:06:49.775Z,9.80
2019-04-21T13:07:49.176Z,9.72
2019-04-21T13:08:55.618Z,9.23
2019-04-21T13:09:48.536Z,9.73
2019-04-21T13:10:48.576Z,10.72
2019-04-21T13:11:49.170Z,11.11
2019-04-21T13:12:48.369Z,12.22
2019-04-21T13:13:48.350Z,10.61
2019-04-21T13:14:49.545Z,10.72
2019-04-21T13:15:49.412Z,10.62
2019-04-21T13:16:49.583Z,9.73
2019-04-21T13:17:48.278Z,9.74
2019-04-21T13:18:49.236Z,10.44
2019-04-21T13:19:49.412Z,10.53
2019-04-21T13:20:48.522Z,11.22
2019-04-21T13:21:48.208Z,10.59
2019-04-21T13:22:48.255Z,11.61
2019-04-21T13:23:49.135Z,12.49
2019-04-21T13:24:49.545Z,11.80
2019-04-21T13:25:48.112Z,12.09
2019-04-21T13:26:53.613Z,11.31
2019-04-21T13:27:49.231Z,12.79
2019-04-21T13:28:48.135Z,10.60
2019-04-21T13:29:48.274Z,10.79
2019-04-21T13:30:48.591Z,10.39
2019-04-21T13:31:48.250Z,8.90
2019-04-21T13:32:49.259Z,9.21
2019-04-21T13:33:48.147Z,8.81
2019-04-21T13:34:47.935Z,9.50
2019-04-21T13:35:48.864Z,9.51
2019-04-21T13:36:47.892Z,9.12
2019-04-21T13:37:50.499Z,8.53
2019-04-21T13:39:23.206Z,9.03
2019-04-21T13:40:09.557Z,9.52
2019-04-21T13:41:03.761Z,10.79
2019-04-21T13:42:00.266Z,11.00
2019-04-21T13:42:52.270Z,10.89
2019-04-21T13:43:47.753Z,12.69
2019-04-21T13:44:48.813Z,10.12
2019-04-21T13:45:47.837Z,11.00
2019-04-21T13:46:49.022Z,11.66
2019-04-21T13:47:48.538Z,10.38
2019-04-21T13:48:48.393Z,10.68
2019-04-21T13:49:47.731Z,11.44
2019-04-21T13:50:48.997Z,11.23
2019-04-21T13:51:48.037Z,11.90
2019-04-21T13:52:48.868Z,13.26
2019-04-21T13:53:47.551Z,13.64
2019-04-21T13:54:47.530Z,13.54
2019-04-21T13:55:48.657Z,14.12
2019-04-21T13:56:47.493Z,14.48
2019-04-21T13:57:48.252Z,15.75
2019-04-21T13:58:48.397Z,16.72
2019-04-21T13:59:49.419Z,18.08
2019-04-21T14:00:47.738Z,20.12
2019-04-21T14:01:47.789Z,21.00
2019-04-21T14:02:48.891Z,22.53
2019-04-21T14:03:47.475Z,21.06
2019-04-21T14:04:47.383Z,20.07
2019-04-21T14:05:48.540Z,21.15
2019-04-21T14:06:48.074Z,22.89
2019-04-21T14:07:48.146Z,22.99
2019-04-21T14:08:48.780Z,22.89
2019-04-21T14:09:55.285Z,22.58
2019-04-21T14:10:47.341Z,21.99
2019-04-21T14:11:47.455Z,24.52
2019-04-21T14:12:48.774Z,22.77
2019-04-21T14:13:48.245Z,19.94
2019-04-21T14:14:48.329Z,19.45
2019-04-21T14:15:49.755Z,18.96
2019-04-21T14:16:47.962Z,20.23
2019-04-21T14:17:47.035Z,20.91
2019-04-21T14:18:47.380Z,21.01
2019-04-21T14:19:46.992Z,20.91
2019-04-21T14:20:46.985Z,21.40
2019-04-21T14:21:49.486Z,22.65
2019-04-21T14:22:46.922Z,25.37
2019-04-21T14:23:48.967Z,24.78
2019-04-21T14:24:48.022Z,22.83
2019-04-21T14:25:47.923Z,23.61
2019-04-21T14:26:47.891Z,22.93
2019-04-21T14:27:49.051Z,23.13
2019-04-21T14:28:47.231Z,23.03
2019-04-21T14:29:46.753Z,22.24
2019-04-21T14:30:48.213Z,25.74
2019-04-21T14:31:46.699Z,24.38
2019-04-21T14:32:47.636Z,23.69